createdAt,value
2019-04-22T00:01:31.173Z,55.30
2019-04-22T00:04:03.612Z,55.20
2019-04-22T00:06:51.651Z,56.00
2019-04-22T00:09:24.098Z,58.30
2019-04-22T00:12:02.198Z,59.00
2019-04-22T00:14:24.884Z,59.80
2019-04-22T00:17:07.265Z,60.00
2019-04-22T00:19:36.174Z,58.10
2019-04-22T00:22:11.800Z,60.60
2019-04-22T00:24:35.509Z,61.60
2019-04-22T00:27:05.223Z,60.80
2019-04-22T00:29:55.850Z,61.10
2019-04-22T00:32:15.493Z,62.00
2019-04-22T00:34:51.913Z,61.90
2019-04-22T00:37:25.209Z,63.50
2019-04-22T00:39:51.446Z,63.30
2019-04-22T00:42:21.184Z,65.00
2019-04-22T00:44:51.763Z,64.60
2019-04-22T00:47:27.910Z,64.20
2019-04-22T00:50:12.342Z,64.90
2019-04-22T00:52:30.625Z,64.30
2019-04-22T00:54:59.462Z,65.80
2019-04-22T00:57:29.627Z,65.70
2019-04-22T01:00:00.295Z,65.80
2019-04-22T01:02:34.660Z,65.20
2019-04-22T01:05:04.115Z,65.50
2019-04-22T01:07:32.165Z,65.50
2019-04-22T01:10:09.269Z,65.80
2019-04-22T01:12:39.486Z,66.50
2019-04-22T01:15:07.315Z,67.40
2019-04-22T01:17:43.432Z,67.20
2019-04-22T01:20:23.899Z,65.80
2019-04-22T01:22:36.330Z,67.10
2019-04-22T01:25:06.031Z,67.80
2019-04-22T01:27:36.149Z,67.10
2019-04-22T01:30:07.162Z,68.40
2019-04-22T01:32:32.828Z,68.00
2019-04-22T01:35:08.445Z,67.50
2019-04-22T01:37:45.921Z,68.30
2019-04-22T01:40:25.328Z,68.90
2019-04-22T01:45:26.725Z,70.40
2019-04-22T01:48:00.493Z,70.00
2019-04-22T01:50:30.637Z,70.00
2019-04-22T01:53:06.349Z,68.90
2019-04-22T01:58:02.315Z,70.80
2019-04-22T02:00:38.643Z,70.50
2019-04-22T02:03:12.475Z,70.20
2019-04-22T02:05:37.623Z,70.80
2019-04-22T02:08:31.627Z,70.10
2019-04-22T02:10:54.795Z,68.50
2019-04-22T02:13:30.662Z,71.50
2019-04-22T02:16:03.522Z,67.90
2019-04-22T02:18:34.462Z,67.40
2019-04-22T02:21:00.148Z,66.60
2019-04-22T02:26:07.567Z,68.20
2019-04-22T02:32:19.468Z,67.90
2019-04-22T02:41:26.177Z,66.80
2019-04-22T02:49:01.860Z,66.60
2019-04-22T02:51:21.961Z,67.40
2019-04-22T03:01:39.620Z,70.00
2019-04-22T03:09:16.379Z,71.60
2019-04-22T03:11:59.198Z,71.40
2019-04-22T03:14:08.698Z,73.00
2019-04-22T03:16:37.507Z,72.80
2019-04-22T03:19:17.741Z,73.90
2019-04-22T03:21:54.565Z,73.40
2019-04-22T03:26:43.331Z,72.90
2019-04-22T03:29:28.759Z,73.90
2019-04-22T03:32:20.559Z,74.00
2019-04-22T03:35:16.143Z,72.80
2019-04-22T03:39:37.706Z,73.50
2019-04-22T03:42:05.830Z,72.70
2019-04-22T03:49:38.935Z,72.90
2019-04-22T03:52:10.751Z,75.00
2019-04-22T03:54:39.555Z,74.50
2019-04-22T04:00:15.728Z,76.30
2019-04-22T04:07:38.368Z,76.80
2019-04-22T04:14:46.600Z,76.90
2019-04-22T04:17:21.830Z,78.30
2019-04-22T04:19:59.879Z,78.50
2019-04-22T04:27:41.446Z,79.50
2019-04-22T04:37:40.911Z,79.80
2019-04-22T04:47:43.803Z,80.20
2019-04-22T04:50:06.859Z,80.00
2019-04-22T04:55:12.348Z,79.40
2019-04-22T05:00:32.631Z,78.10
2019-04-22T05:03:13.871Z,80.30
2019-04-22T05:05:14.420Z,79.50
2019-04-22T05:07:40.890Z,79.20
2019-04-22T05:10:37.404Z,78.50
2019-04-22T05:15:14.336Z,77.10
2019-04-22T05:17:50.651Z,77.30
2019-04-22T05:20:33.726Z,77.90
2019-04-22T05:22:39.738Z,75.60
2019-04-22T05:25:15.303Z,78.10
2019-04-22T05:30:23.192Z,75.50
2019-04-22T05:32:44.564Z,74.80
2019-04-22T05:35:14.483Z,75.40
2019-04-22T05:37:50.552Z,75.30
2019-04-22T05:40:22.098Z,75.00
2019-04-22T05:42:49.462Z,75.30
2019-04-22T05:45:21.641Z,75.50
2019-04-22T05:47:52.303Z,75.10
2019-04-22T05:50:20.429Z,74.00
2019-04-22T05:52:55.296Z,73.50
2019-04-22T05:55:43.593Z,73.30
2019-04-22T05:57:59.727Z,73.70
2019-04-22T06:05:34.363Z,74.50
2019-04-22T06:08:04.203Z,74.30
2019-04-22T06:13:06.581Z,73.60
2019-04-22T06:15:39.072Z,74.90
2019-04-22T06:23:30.694Z,72.80
2019-04-22T06:28:38.743Z,73.20
2019-04-22T06:31:02.554Z,72.90
2019-04-22T06:33:34.504Z,72.10
2019-04-22T06:36:03.693Z,71.30
2019-04-22T06:41:08.590Z,71.20
2019-04-22T06:43:35.235Z,71.10
2019-04-22T06:46:08.387Z,71.70
2019-04-22T06:48:34.661Z,70.80
2019-04-22T06:51:08.119Z,69.80
2019-04-22T06:56:11.158Z,68.50
2019-04-22T06:58:39.697Z,68.70
2019-04-22T07:01:19.634Z,68.50
2019-04-22T07:06:19.612Z,67.40
2019-04-22T07:11:18.839Z,65.50
2019-04-22T07:14:00.120Z,65.30
2019-04-22T07:16:28.863Z,64.30
2019-04-22T07:18:54.889Z,63.30
2019-04-22T07:21:26.062Z,64.20
2019-04-22T07:24:17.896Z,63.30
2019-04-22T07:26:24.164Z,60.80
2019-04-22T07:29:06.149Z,61.70
2019-04-22T07:31:45.074Z,59.20
2019-04-22T07:34:08.170Z,57.50
2019-04-22T07:39:06.636Z,56.30
2019-04-22T07:41:38.396Z,57.00
2019-04-22T07:44:29.570Z,56.70
2019-04-22T07:46:41.751Z,56.90
2019-04-22T07:49:10.610Z,56.50
2019-04-22T07:54:13.317Z,56.50
2019-04-22T07:56:53.871Z,57.90
2019-04-22T07:59:26.497Z,57.10
2019-04-22T08:01:48.374Z,57.20
2019-04-22T08:04:44.784Z,57.40
2019-04-22T08:06:58.928Z,57.40
2019-04-22T08:09:27.785Z,57.60
2019-04-22T08:11:53.868Z,57.30
2019-04-22T08:14:31.398Z,57.00
2019-04-22T08:17:14.164Z,57.20
2019-04-22T08:19:28.076Z,57.10
2019-04-22T08:22:07.924Z,55.80
2019-04-22T08:24:35.915Z,57.30
2019-04-22T08:27:04.546Z,53.10
2019-04-22T08:29:37.201Z,55.80
2019-04-22T08:32:05.097Z,54.40
2019-04-22T08:34:47.584Z,54.60
2019-04-22T08:37:35.637Z,55.00
2019-04-22T08:39:39.146Z,54.10
2019-04-22T08:42:13.660Z,53.10
2019-04-22T08:47:19.106Z,52.40
2019-04-22T08:49:53.032Z,51.10
2019-04-22T08:52:17.549Z,50.20
2019-04-22T08:54:45.004Z,52.00
2019-04-22T08:57:18.393Z,48.90
2019-04-22T08:59:49.024Z,50.50
2019-04-22T09:04:52.151Z,52.70
2019-04-22T09:09:50.658Z,52.80
2019-04-22T09:12:34.764Z,49.70
2019-04-22T09:14:52.109Z,51.70
2019-04-22T09:17:31.830Z,47.60
2019-04-22T09:20:02.237Z,48.00
2019-04-22T09:22:41.163Z,50.10
2019-04-22T09:24:57.407Z,50.40
2019-04-22T09:29:58.467Z,46.70
2019-04-22T09:32:36.373Z,47.50
2019-04-22T09:35:02.971Z,47.50
2019-04-22T09:37:40.762Z,49.90
2019-04-22T09:42:39.640Z,47.60
2019-04-22T09:45:13.255Z,48.20
2019-04-22T09:50:21.521Z,46.40
2019-04-22T09:52:49.622Z,47.90
2019-04-22T09:57:46.034Z,47.70
2019-04-22T10:00:46.365Z,48.10
2019-04-22T10:03:16.036Z,44.90
2019-04-22T10:05:41.135Z,46.60
2019-04-22T10:08:21.996Z,46.00
2019-04-22T10:10:44.678Z,46.60
2019-04-22T10:13:18.700Z,44.40
2019-04-22T10:15:52.213Z,45.40
2019-04-22T10:18:16.264Z,45.80
2019-04-22T10:20:49.373Z,44.90
2019-04-22T10:23:21.683Z,45.20
2019-04-22T10:25:52.572Z,41.20
2019-04-22T10:28:24.296Z,41.80
2019-04-22T10:30:52.842Z,42.30
2019-04-22T10:33:20.841Z,39.80
2019-04-22T10:35:32.220Z,41.90
2019-04-22T10:38:01.222Z,41.50
2019-04-22T10:40:36.449Z,40.80
2019-04-22T10:43:09.593Z,42.70
2019-04-22T10:45:39.793Z,41.20
2019-04-22T10:48:10.455Z,39.80
2019-04-22T10:50:46.607Z,41.60
2019-04-22T10:53:17.757Z,38.40
2019-04-22T10:55:49.875Z,40.20
2019-04-22T10:58:20.883Z,38.70
2019-04-22T11:00:52.078Z,39.10
2019-04-22T11:03:22.502Z,39.00
2019-04-22T11:05:53.918Z,36.20
2019-04-22T11:08:32.664Z,35.40
2019-04-22T11:11:07.124Z,39.50
2019-04-22T11:13:26.134Z,39.90
2019-04-22T11:15:55.943Z,36.50
2019-04-22T11:18:25.453Z,37.30
2019-04-22T11:20:55.742Z,36.60
2019-04-22T11:23:26.924Z,37.50
2019-04-22T11:25:57.725Z,41.40
2019-04-22T11:28:27.818Z,32.70
2019-04-22T11:30:58.720Z,31.80
2019-04-22T11:33:28.468Z,33.90
2019-04-22T11:35:57.897Z,35.60
2019-04-22T11:38:28.722Z,32.20
2019-04-22T11:40:59.999Z,36.00
2019-04-22T11:43:30.483Z,35.30
2019-04-22T11:46:01.298Z,37.20
2019-04-22T11:48:31.139Z,33.40
2019-04-22T11:51:01.944Z,34.00
2019-04-22T11:53:31.754Z,35.70
2019-04-22T11:56:02.673Z,31.80
2019-04-22T11:58:35.277Z,34.00
2019-04-22T12:01:06.616Z,35.50
2019-04-22T12:03:37.870Z,32.60
2019-04-22T12:06:08.386Z,32.70
2019-04-22T12:08:39.685Z,34.70
2019-04-22T12:11:09.901Z,32.30
2019-04-22T12:13:42.022Z,33.10
2019-04-22T12:16:11.700Z,34.50
2019-04-22T12:18:41.177Z,37.90
2019-04-22T12:21:10.989Z,34.30
2019-04-22T12:23:41.270Z,36.80
2019-04-22T12:26:15.052Z,36.50
2019-04-22T12:28:42.142Z,38.80
2019-04-22T12:31:11.709Z,32.70
2019-04-22T12:33:41.371Z,38.60
2019-04-22T12:36:12.648Z,29.90
2019-04-22T12:38:42.366Z,37.70
2019-04-22T12:41:13.668Z,31.90
2019-04-22T12:43:43.243Z,30.40
2019-04-22T12:46:12.634Z,27.80
2019-04-22T12:48:43.622Z,29.00
2019-04-22T12:51:13.377Z,29.20
2019-04-22T12:53:44.544Z,28.50
2019-04-22T12:56:15.418Z,34.00
2019-04-22T12:58:45.771Z,31.40
2019-04-22T13:01:15.405Z,27.30
2019-04-22T13:03:44.873Z,29.00
2019-04-22T13:06:14.363Z,27.60
2019-04-22T13:08:45.579Z,29.30
2019-04-22T13:11:18.495Z,29.20
2019-04-22T13:13:47.087Z,34.50
2019-04-22T13:16:17.490Z,35.00
2019-04-22T13:18:53.787Z,27.60
2019-04-22T13:21:18.641Z,27.90
2019-04-22T13:23:48.882Z,29.60
2019-04-22T13:26:18.990Z,28.00
2019-04-22T13:28:49.243Z,34.40
2019-04-22T13:31:20.739Z,32.70
2019-04-22T13:33:51.642Z,32.10
2019-04-22T13:36:23.739Z,29.90
2019-04-22T13:38:53.117Z,33.00
2019-04-22T13:41:31.788Z,29.70
2019-04-22T13:43:54.066Z,32.50
2019-04-22T13:46:24.076Z,27.30
2019-04-22T13:49:25.185Z,27.70
2019-04-22T13:51:52.481Z,27.90
2019-04-22T13:56:48.009Z,27.40
2019-04-22T13:59:09.237Z,26.90
2019-04-22T14:01:40.613Z,31.50
2019-04-22T14:04:12.591Z,31.50
2019-04-22T14:06:42.871Z,36.30
2019-04-22T14:09:13.690Z,32.20
2019-04-22T14:11:49.309Z,29.40
2019-04-22T14:14:15.608Z,29.10
2019-04-22T14:16:46.618Z,29.40
2019-04-22T14:19:16.465Z,33.60
2019-04-22T14:21:47.489Z,31.00
2019-04-22T14:24:17.868Z,28.20
2019-04-22T14:27:01.656Z,29.90
2019-04-22T14:29:19.713Z,32.30
2019-04-22T14:32:01.124Z,25.80
2019-04-22T14:34:20.869Z,26.30
2019-04-22T14:36:51.141Z,26.50
2019-04-22T14:39:22.007Z,33.80
2019-04-22T14:42:11.618Z,26.60
2019-04-22T14:45:13.435Z,27.00
2019-04-22T14:47:23.712Z,28.00
2019-04-22T14:49:47.313Z,28.70
2019-04-22T14:52:21.533Z,29.80
2019-04-22T14:54:41.632Z,28.50
2019-04-22T14:56:58.993Z,26.50
2019-04-22T14:59:29.188Z,26.80
2019-04-22T15:01:59.451Z,31.10
2019-04-22T15:04:29.078Z,30.10
2019-04-22T15:06:59.067Z,27.40
2019-04-22T15:09:29.990Z,28.10
2019-04-22T15:12:13.421Z,29.30
2019-04-22T15:14:33.155Z,28.00
2019-04-22T15:17:07.143Z,26.60
2019-04-22T15:19:41.178Z,26.50
2019-04-22T15:22:10.614Z,31.00
2019-04-22T15:24:40.700Z,26.10
2019-04-22T15:27:10.672Z,26.10
2019-04-22T15:29:41.177Z,26.20
2019-04-22T15:32:11.723Z,27.70
2019-04-22T15:34:41.630Z,27.50
2019-04-22T15:37:11.926Z,26.30
2019-04-22T15:39:41.798Z,27.60
2019-04-22T15:42:18.355Z,27.20
2019-04-22T15:44:42.356Z,28.70
2019-04-22T15:47:13.072Z,26.60
2019-04-22T15:49:42.932Z,25.40
2019-04-22T15:52:12.623Z,27.00
2019-04-22T15:54:43.607Z,28.30
2019-04-22T15:57:14.836Z,27.60
2019-04-22T16:00:02.511Z,25.80
2019-04-22T16:02:16.643Z,29.00
2019-04-22T16:04:46.566Z,26.30
2019-04-22T16:07:17.207Z,25.80
2019-04-22T16:09:47.887Z,24.40
2019-04-22T16:12:25.926Z,26.20
2019-04-22T16:14:54.566Z,27.90
2019-04-22T16:17:20.424Z,26.00
2019-04-22T16:19:50.930Z,28.10
2019-04-22T16:22:23.165Z,23.80
2019-04-22T16:24:54.151Z,23.90
2019-04-22T16:27:26.302Z,25.90
2019-04-22T16:29:57.184Z,24.70
2019-04-22T16:32:27.798Z,24.00
2019-04-22T16:34:58.685Z,25.70
2019-04-22T16:37:28.581Z,27.80
2019-04-22T16:39:58.931Z,24.90
2019-04-22T16:42:38.105Z,24.40
2019-04-22T16:44:59.713Z,26.30
2019-04-22T16:47:29.122Z,25.60
2019-04-22T16:49:59.613Z,25.20
2019-04-22T16:52:30.294Z,26.20
2019-04-22T16:55:00.997Z,27.00
2019-04-22T16:57:30.409Z,27.10
2019-04-22T17:00:00.482Z,25.50
2019-04-22T17:02:52.132Z,27.60
2019-04-22T17:05:31.952Z,26.50
2019-04-22T17:08:02.524Z,28.60
2019-04-22T17:10:33.541Z,26.40
2019-04-22T17:13:07.846Z,28.10
2019-04-22T17:15:35.278Z,27.70
2019-04-22T17:18:05.510Z,27.30
2019-04-22T17:20:36.055Z,27.20
2019-04-22T17:23:05.631Z,27.30
2019-04-22T17:25:36.210Z,26.90
2019-04-22T17:28:05.820Z,27.70
2019-04-22T17:30:35.978Z,27.40
2019-04-22T17:33:05.579Z,26.50
2019-04-22T17:35:36.042Z,26.60
2019-04-22T17:38:16.701Z,25.50
2019-04-22T17:40:52.241Z,26.40
2019-04-22T17:43:41.314Z,26.10
2019-04-22T17:46:03.092Z,26.70
2019-04-22T17:48:46.634Z,25.90
2019-04-22T17:51:29.891Z,25.90
2019-04-22T17:53:59.647Z,26.30
2019-04-22T17:56:27.630Z,27.30
2019-04-22T17:58:58.758Z,27.20
2019-04-22T18:01:29.911Z,26.80
2019-04-22T18:03:47.400Z,27.00
2019-04-22T18:06:39.223Z,27.00
2019-04-22T18:09:01.842Z,27.50
2019-04-22T18:11:39.591Z,27.80
2019-04-22T18:14:26.054Z,27.90
2019-04-22T18:16:37.088Z,27.70
2019-04-22T18:19:10.100Z,28.30
2019-04-22T18:21:36.191Z,28.00
2019-04-22T18:23:55.331Z,28.40
2019-04-22T18:26:43.534Z,28.20
2019-04-22T18:29:11.559Z,28.40
2019-04-22T18:31:37.171Z,28.90
2019-04-22T18:34:08.351Z,29.50
2019-04-22T18:36:43.645Z,29.20
2019-04-22T18:39:22.457Z,30.10
2019-04-22T18:41:46.141Z,31.20
2019-04-22T18:44:23.521Z,30.80
2019-04-22T18:46:51.265Z,30.20
2019-04-22T18:49:18.560Z,30.80
2019-04-22T18:52:05.779Z,30.90
2019-04-22T18:54:48.428Z,31.40
2019-04-22T18:57:18.259Z,33.20
2019-04-22T18:59:36.167Z,33.60
2019-04-22T19:02:08.555Z,33.90
2019-04-22T19:04:44.318Z,33.60
2019-04-22T19:07:36.848Z,33.80
2019-04-22T19:10:04.890Z,33.80
2019-04-22T19:12:34.407Z,33.90
2019-04-22T19:15:04.149Z,33.90
2019-04-22T19:17:40.453Z,34.80
2019-04-22T19:20:13.322Z,34.40
2019-04-22T19:22:36.727Z,35.60
2019-04-22T19:24:59.894Z,35.30
2019-04-22T19:27:35.951Z,38.40
2019-04-22T19:30:14.289Z,36.40
2019-04-22T19:32:42.015Z,35.40
2019-04-22T19:35:11.571Z,36.80
2019-04-22T19:37:38.400Z,36.20
2019-04-22T19:40:20.585Z,36.00
2019-04-22T19:42:52.630Z,36.10
2019-04-22T19:45:14.658Z,37.10
2019-04-22T19:47:50.107Z,36.30
2019-04-22T19:50:24.476Z,36.20
2019-04-22T19:52:51.384Z,36.60
2019-04-22T19:55:27.904Z,36.50
2019-04-22T19:57:48.945Z,36.90
2019-04-22T20:00:33.986Z,36.90
2019-04-22T20:03:16.546Z,37.50
2019-04-22T20:05:50.554Z,37.30
2019-04-22T20:08:22.900Z,38.30
2019-04-22T20:10:48.867Z,38.10
2019-04-22T20:13:24.336Z,38.10
2019-04-22T20:15:43.273Z,37.80
2019-04-22T20:18:41.930Z,38.20
2019-04-22T20:20:59.645Z,37.90
2019-04-22T20:23:18.213Z,37.90
2019-04-22T20:25:50.978Z,38.00
2019-04-22T20:28:32.672Z,38.20
2019-04-22T20:30:55.408Z,38.00
2019-04-22T20:33:43.097Z,38.30
2019-04-22T20:36:03.738Z,38.60
2019-04-22T20:38:30.735Z,38.70
2019-04-22T20:40:58.223Z,39.30
2019-04-22T20:43:44.830Z,39.70
2019-04-22T20:46:05.269Z,39.70
2019-04-22T20:48:41.147Z,40.50
2019-04-22T20:51:06.539Z,40.50
2019-04-22T20:53:46.053Z,41.10
2019-04-22T20:56:09.908Z,43.90
2019-04-22T20:58:38.782Z,44.80
2019-04-22T21:01:05.265Z,43.60
2019-04-22T21:03:33.303Z,44.50
2019-04-22T21:06:11.741Z,44.80
2019-04-22T21:08:48.633Z,45.00
2019-04-22T21:11:15.337Z,45.50
2019-04-22T21:13:41.098Z,44.90
2019-04-22T21:16:22.283Z,43.90
2019-04-22T21:18:44.660Z,43.50
2019-04-22T21:21:29.669Z,43.90
2019-04-22T21:23:47.702Z,44.30
2019-04-22T21:26:24.033Z,43.80
2019-04-22T21:28:53.829Z,45.70
2019-04-22T21:31:30.798Z,44.60
2019-04-22T21:34:01.132Z,45.20
2019-04-22T21:38:59.133Z,44.20
2019-04-22T21:41:30.685Z,44.30
2019-04-22T21:44:05.509Z,44.60
2019-04-22T21:46:35.240Z,46.20
2019-04-22T21:49:09.405Z,45.30
2019-04-22T21:51:39.750Z,45.60
2019-04-22T21:54:11.929Z,45.70
2019-04-22T21:57:01.519Z,46.60
2019-04-22T21:59:27.054Z,46.70
2019-04-22T22:02:04.137Z,49.90
2019-04-22T22:04:30.315Z,48.70
2019-04-22T22:06:57.137Z,48.40
2019-04-22T22:09:37.692Z,47.10
2019-04-22T22:12:05.220Z,47.40
2019-04-22T22:14:39.722Z,47.70
2019-04-22T22:17:02.019Z,48.40
2019-04-22T22:19:41.939Z,48.60
2019-04-22T22:22:28.132Z,49.30
2019-04-22T22:24:48.334Z,49.40
2019-04-22T22:27:17.217Z,49.60
2019-04-22T22:32:16.546Z,50.30
2019-04-22T22:34:46.506Z,50.50
2019-04-22T22:37:09.805Z,51.10
2019-04-22T22:39:39.286Z,51.00
2019-04-22T22:41:59.677Z,51.50
2019-04-22T22:44:38.017Z,51.20
2019-04-22T22:47:18.279Z,51.60
2019-04-22T22:49:53.127Z,51.40
2019-04-22T22:52:46.849Z,51.90
2019-04-22T22:54:58.931Z,51.90
2019-04-22T22:59:55.730Z,52.50
2019-04-22T23:02:28.770Z,52.80
2019-04-22T23:05:05.869Z,53.00
2019-04-22T23:07:37.414Z,53.40
2019-04-22T23:10:01.708Z,53.10
2019-04-22T23:12:40.538Z,53.60
2019-04-22T23:15:07.891Z,53.60
2019-04-22T23:17:22.295Z,53.60
2019-04-22T23:19:50.350Z,53.70
2019-04-22T23:22:26.784Z,53.90
2019-04-22T23:25:16.040Z,54.10
2019-04-22T23:30:32.197Z,54.50
2019-04-22T23:33:09.993Z,54.70
2019-04-22T23:35:56.605Z,54.90
2019-04-22T23:38:25.668Z,55.00
2019-04-22T23:41:00.157Z,55.10
2019-04-22T23:43:32.777Z,55.70
2019-04-22T23:46:05.790Z,55.60
2019-04-22T23:48:30.251Z,55.70
2019-04-22T23:51:13.604Z,56.30
2019-04-22T23:56:13.577Z,56.00
